Etusivu
METAR-TAF:

METAR-TAF

Lentoasemat :

Decorah Municipal Airport

Decorah, Iowa, Yhdysvallat

Leveyspiiri: 43-17N, Pituuspiiri: 091-44W, korkeus merenpinnasta: 353 m

Tämänhetkinen sää

Tämä raportti tehtiin 16 minuuttia sitten, kello 10.35 UTC
Tuuli 14 kn pohjoisen/luoteesta puuskistuen 23 kn:hen
Lämpötila -4°C
Kosteus 93%
Ilmanpaine 1017 hPa
Näkyvyys: 16.1 km
Pilvistä 1700 ft:n korkeudessa

METAR: KDEH 181035Z AUTO 33014G23KT 10SM OVC017 M04/M05 A3003 RMK AO2

Aika: 04:51 (10:51 UTC)


TAF: puuttuu

Säähavainnot ja -ennusteet yli 4000 lentoasemalta (METAR- ja TAF-raportit).

Käytössä olevat sääasemat on merkitty karttaan keltaisilla ja punaisilla pisteillä.

Aseta hiiri pisteen päälle nähdäksesi sääaseman nimen.

Klikkaa sitten nähdäksesi säähavainnot ja -ennusteet.

Kartan vaihtaminen: klikkaa mustalla rastilla varustettuja vihreitä pisteitä, niin voit zoomata sisään; viivalla varustettua vihreää pistettä, niin voit zoomata ulos tai vihreitä nuolia, niin pääset viereisille kartoille.


METAR-TAF: